| time (UTC) | temp C | wind direction | speed KPH | gust KPH | rain 1hr cm | rain 24hr cm | rain mn cm | humidity % | barometer mb |
| 20260904054205 | 20 | 73 | 0.0 | 1.6 | 0.00 | 0.00 | 0.00 | 80 | 1013.3 |
| 20260904053705 | 20 | 312 | 0.0 | 6.4 | 0.00 | 0.00 | 0.00 | 80 | 1013.4 |
| 20260904053205 | 20 | 19 | 0.0 | 0.0 | 0.00 | 0.00 | 0.00 | 80 | 1013.4 |
| 20260904052705 | 20 | 19 | 0.0 | 3.2 | 0.00 | 0.00 | 0.00 | 80 | 1013.4 |
| 20260904052204 | 20 | 45 | 0.0 | 3.2 | 0.00 | 0.00 | 0.00 | 80 | 1013.3 |
| 20260904051704 | 20 | 88 | 0.0 | 4.8 | 0.00 | 0.00 | 0.00 | 80 | 1013.3 |
| 20260904051204 | 20 | 46 | 0.0 | 4.8 | 0.00 | 0.00 | 0.00 | 80 | 1013.4 |
| 20260904050703 | 20 | 345 | 0.0 | 4.8 | 0.00 | 0.00 | 0.00 | 80 | 1013.4 |
| 20260904050203 | 20 | 343 | 0.0 | 1.6 | 0.00 | 0.00 | 0.00 | 80 | 1013.4 |
| 20260904045703 | 19 | 32 | 0.0 | 6.4 | 0.00 | 0.00 | 0.00 | 80 | 1013.3 |
| 20260904045203 | 19 | 345 | 3.2 | 3.2 | 0.00 | 0.00 | 0.00 | 80 | 1013.3 |
| 20260904044702 | 20 | 12 | 0.0 | 4.8 | 0.00 | 0.00 | 0.00 | 80 | 1013.2 |
| 20260904044202 | 20 | 23 | 0.0 | 4.8 | 0.00 | 0.00 | 0.00 | 80 | 1013.4 |
| 20260904043702 | 20 | 46 | 0.0 | 6.4 | 0.00 | 0.00 | 0.00 | 80 | 1013.3 |
| 20260904043202 | 20 | 66 | 0.0 | 6.4 | 0.00 | 0.00 | 0.00 | 80 | 1013.4 |
| 20260904042701 | 20 | 358 | 0.0 | 6.4 | 0.00 | 0.00 | 0.00 | 80 | 1013.4 |
| 20260904042201 | 20 | 326 | 0.0 | 3.2 | 0.00 | 0.00 | 0.00 | 79 | 1013.5 |
| 20260904041701 | 20 | 351 | 0.0 | 4.8 | 0.00 | 0.00 | 0.00 | 79 | 1013.5 |
| 20260904041200 | 20 | 345 | 0.0 | 6.4 | 0.00 | 0.00 | 0.00 | 79 | 1013.5 |
| 20260904040700 | 20 | 305 | 0.0 | 4.8 | 0.00 | 0.00 | 0.00 | 78 | 1013.6 |
| 20260904040200 | 20 | 104 | 0.0 | 0.0 | 0.00 | 0.00 | 0.00 | 78 | 1013.6 |
| 20260904035659 | 20 | 104 | 0.0 | 4.8 | 0.00 | 0.00 | 0.00 | 78 | 1013.6 |
| 20260904035159 | 20 | 59 | 0.0 | 6.4 | 0.00 | 0.00 | 0.00 | 78 | 1013.7 |
| 20260904034659 | 20 | 323 | 4.8 | 4.8 | 0.00 | 0.00 | 0.00 | 78 | 1013.8 |
| 20260904034159 | 20 | 12 | 1.6 | 9.7 | 0.00 | 0.00 | 0.00 | 78 | 1013.7 |
| 20260904033658 | 20 | 30 | 0.0 | 9.7 | 0.00 | 0.00 | 0.00 | 78 | 1013.8 |
| 20260904033158 | 20 | 222 | 0.0 | 6.4 | 0.00 | 0.00 | 0.00 | 78 | 1013.9 |
| 20260904032658 | 20 | 345 | 0.0 | 3.2 | 0.00 | 0.00 | 0.00 | 77 | 1013.8 |
| 20260904032158 | 20 | 199 | 1.6 | 4.8 | 0.00 | 0.00 | 0.00 | 77 | 1013.9 |
| 20260904031657 | 20 | 343 | 3.2 | 6.4 | 0.00 | 0.00 | 0.00 | 77 | 1013.9 |
| 20260904031157 | 20 | 99 | 1.6 | 4.8 | 0.00 | 0.00 | 0.00 | 77 | 1013.9 |
| 20260904030657 | 20 | 329 | 3.2 | 9.7 | 0.00 | 0.00 | 0.00 | 78 | 1014.0 |
| 20260904030156 | 20 | 15 | 0.0 | 6.4 | 0.00 | 0.00 | 0.00 | 76 | 1014.1 |
| 20260904025656 | 20 | 316 | 0.0 | 0.0 | 0.00 | 0.00 | 0.00 | 76 | 1014.1 |
| 20260904025156 | 20 | 316 | 0.0 | 0.0 | 0.00 | 0.00 | 0.00 | 76 | 1014.2 |
| 20260904024656 | 20 | 316 | 0.0 | 0.0 | 0.00 | 0.00 | 0.00 | 76 | 1014.2 |
| 20260904024155 | 20 | 316 | 0.0 | 0.0 | 0.00 | 0.00 | 0.00 | 76 | 1014.2 |
| 20260904023655 | 20 | 316 | 0.0 | 0.0 | 0.00 | 0.00 | 0.00 | 76 | 1014.2 |
| 20260904023155 | 20 | 316 | 0.0 | 0.0 | 0.00 | 0.00 | 0.00 | 76 | 1014.2 |
| 20260904022654 | 20 | 316 | 0.0 | 0.0 | 0.00 | 0.00 | 0.00 | 76 | 1014.2 |
| 20260904022154 | 20 | 316 | 0.0 | 0.0 | 0.00 | 0.00 | 0.00 | 75 | 1014.2 |
| 20260904021654 | 20 | 316 | 0.0 | 0.0 | 0.00 | 0.00 | 0.00 | 75 | 1014.2 |
| 20260904021153 | 20 | 316 | 0.0 | 0.0 | 0.00 | 0.00 | 0.00 | 75 | 1014.1 |
| 20260904020653 | 20 | 316 | 0.0 | 3.2 | 0.00 | 0.00 | 0.00 | 75 | 1014.1 |
| 20260904020153 | 20 | 5 | 0.0 | 0.0 | 0.00 | 0.00 | 0.00 | 75 | 1014.0 |
| 20260904015653 | 20 | 5 | 0.0 | 4.8 | 0.00 | 0.00 | 0.00 | 75 | 1014.1 |
| 20260904015152 | 20 | 313 | 1.6 | 4.8 | 0.00 | 0.00 | 0.00 | 75 | 1014.2 |
| 20260904014652 | 20 | 50 | 1.6 | 4.8 | 0.00 | 0.00 | 0.00 | 75 | 1014.3 |
| 20260904014152 | 20 | 320 | 0.0 | 4.8 | 0.00 | 0.00 | 0.00 | 74 | 1014.4 |
| 20260904013652 | 20 | 19 | 0.0 | 0.0 | 0.00 | 0.00 | 0.00 | 74 | 1014.3 |
| 20260904013151 | 20 | 19 | 0.0 | 0.0 | 0.00 | 0.00 | 0.00 | 74 | 1014.4 |
| 20260904012651 | 20 | 19 | 0.0 | 0.0 | 0.00 | 0.00 | 0.00 | 73 | 1014.5 |
| 20260904012151 | 20 | 19 | 0.0 | 0.0 | 0.00 | 0.00 | 0.00 | 73 | 1014.5 |
| 20260904011650 | 20 | 19 | 0.0 | 0.0 | 0.00 | 0.00 | 0.00 | 73 | 1014.6 |
| 20260904011150 | 20 | 19 | 0.0 | 0.0 | 0.00 | 0.00 | 0.00 | 73 | 1014.8 |
| 20260904010650 | 20 | 19 | 0.0 | 0.0 | 0.00 | 0.00 | 0.00 | 72 | 1014.7 |
| 20260904010150 | 20 | 19 | 0.0 | 0.0 | 0.00 | 0.00 | 0.00 | 72 | 1014.8 |
| 20260904005649 | 21 | 19 | 0.0 | 0.0 | 0.00 | 0.00 | 0.00 | 72 | 1014.9 |
| 20260904005149 | 21 | 19 | 0.0 | 0.0 | 0.00 | 0.00 | 0.00 | 71 | 1014.8 |
| 20260904004649 | 21 | 19 | 0.0 | 0.0 | 0.00 | 0.00 | 0.00 | 71 | 1014.8 |
| 20260904004148 | 21 | 19 | 0.0 | 0.0 | 0.00 | 0.00 | 0.00 | 71 | 1014.8 |
| 20260904003648 | 21 | 19 | 0.0 | 0.0 | 0.00 | 0.00 | 0.00 | 71 | 1014.8 |
| 20260904003148 | 21 | 19 | 0.0 | 0.0 | 0.00 | 0.00 | 0.00 | 70 | 1014.7 |
| 20260904002648 | 21 | 19 | 0.0 | 0.0 | 0.00 | 0.00 | 0.00 | 70 | 1014.7 |
| 20260904002147 | 21 | 19 | 0.0 | 0.0 | 0.00 | 0.00 | 0.00 | 70 | 1014.7 |
| 20260904001647 | 21 | 19 | 0.0 | 0.0 | 0.00 | 0.00 | 0.00 | 70 | 1014.7 |
| 20260904001147 | 21 | 19 | 0.0 | 0.0 | 0.00 | 0.00 | 0.00 | 70 | 1014.9 |
| 20260904000646 | 21 | 19 | 0.0 | 0.0 | 0.00 | 0.00 | 0.00 | 70 | 1015.0 |
| 20260904000146 | 21 | 19 | 0.0 | 0.0 | 0.00 | 0.00 | 0.00 | 69 | 1014.9 |
| 20260903235646 | 21 | 19 | 0.0 | 0.0 | 0.00 | 0.00 | 0.00 | 69 | 1014.9 |
| 20260903235146 | 21 | 19 | 0.0 | 0.0 | 0.00 | 0.00 | 0.00 | 69 | 1014.9 |
| 20260903234645 | 21 | 19 | 0.0 | 0.0 | 0.00 | 0.00 | 0.00 | 69 | 1015.0 |
| 20260903234145 | 21 | 19 | 0.0 | 0.0 | 0.00 | 0.00 | 0.00 | 69 | 1015.0 |
| 20260903233645 | 22 | 19 | 0.0 | 0.0 | 0.00 | 0.00 | 0.00 | 68 | 1015.1 |
| 20260903233144 | 22 | 19 | 0.0 | 0.0 | 0.00 | 0.00 | 0.00 | 68 | 1015.1 |
| 20260903232644 | 22 | 19 | 0.0 | 0.0 | 0.00 | 0.00 | 0.00 | 68 | 1015.2 |
| 20260903232144 | 22 | 19 | 0.0 | 0.0 | 0.00 | 0.00 | 0.00 | 68 | 1015.2 |
| 20260903231644 | 22 | 19 | 0.0 | 0.0 | 0.00 | 0.00 | 0.00 | 68 | 1015.2 |
| 20260903231143 | 22 | 19 | 0.0 | 0.0 | 0.00 | 0.00 | 0.00 | 68 | 1015.1 |
| 20260903230643 | 22 | 19 | 0.0 | 1.6 | 0.00 | 0.00 | 0.00 | 68 | 1015.0 |
| 20260903230143 | 22 | 45 | 0.0 | 6.4 | 0.00 | 0.00 | 0.00 | 67 | 1015.2 |
| 20260903225642 | 22 | 60 | 0.0 | 4.8 | 0.00 | 0.00 | 0.00 | 67 | 1015.3 |
| 20260903225142 | 22 | 82 | 0.0 | 6.4 | 0.00 | 0.00 | 0.00 | 67 | 1015.4 |
| 20260903224642 | 22 | 26 | 1.6 | 8.0 | 0.00 | 0.00 | 0.00 | 67 | 1015.4 |
| 20260903224142 | 22 | 113 | 1.6 | 8.0 | 0.00 | 0.00 | 0.00 | 67 | 1015.4 |
| 20260903223641 | 22 | 40 | 3.2 | 11.3 | 0.00 | 0.00 | 0.00 | 67 | 1015.5 |
| 20260903223141 | 22 | 14 | 0.0 | 6.4 | 0.00 | 0.00 | 0.00 | 67 | 1015.4 |
| 20260903222641 | 22 | 50 | 0.0 | 4.8 | 0.00 | 0.00 | 0.00 | 66 | 1015.5 |
| 20260903222140 | 22 | 75 | 0.0 | 3.2 | 0.00 | 0.00 | 0.00 | 66 | 1015.6 |
| 20260903221640 | 22 | 73 | 0.0 | 6.4 | 0.00 | 0.00 | 0.00 | 66 | 1015.6 |
| 20260903221140 | 22 | 45 | 1.6 | 8.0 | 0.00 | 0.00 | 0.00 | 66 | 1015.6 |
| 20260903220640 | 22 | 56 | 0.0 | 4.8 | 0.00 | 0.00 | 0.00 | 66 | 1015.7 |
| 20260903220139 | 22 | 37 | 0.0 | 8.0 | 0.00 | 0.00 | 0.00 | 66 | 1015.6 |
| 20260903215639 | 22 | 57 | 0.0 | 3.2 | 0.00 | 0.00 | 0.00 | 66 | 1015.6 |
| 20260903215139 | 22 | 77 | 0.0 | 3.2 | 0.00 | 0.00 | 0.00 | 66 | 1015.6 |
| 20260903214638 | 22 | 30 | 0.0 | 3.2 | 0.00 | 0.00 | 0.00 | 66 | 1015.7 |
| 20260903214138 | 22 | 25 | 1.6 | 1.6 | 0.00 | 0.00 | 0.00 | 66 | 1015.7 |
| 20260903213638 | 22 | 119 | 0.0 | 4.8 | 0.00 | 0.00 | 0.00 | 65 | 1015.8 |
| 20260903213138 | 22 | 53 | 0.0 | 3.2 | 0.00 | 0.00 | 0.00 | 65 | 1015.6 |
| 20260903212637 | 23 | 40 | 0.0 | 3.2 | 0.00 | 0.00 | 0.00 | 65 | 1015.5 |
| 20260903212137 | 22 | 61 | 0.0 | 0.0 | 0.00 | 0.00 | 0.00 | 65 | 1015.4 |
| 20260903211637 | 22 | 61 | 0.0 | 1.6 | 0.00 | 0.00 | 0.00 | 65 | 1015.4 |
| 20260903211137 | 22 | 22 | 0.0 | 3.2 | 0.00 | 0.00 | 0.00 | 65 | 1015.4 |
| 20260903210636 | 22 | 46 | 0.0 | 4.8 | 0.00 | 0.00 | 0.00 | 65 | 1015.6 |
| 20260903210136 | 22 | 26 | 0.0 | 3.2 | 0.00 | 0.00 | 0.00 | 64 | 1015.7 |
| 20260903205636 | 23 | 99 | 0.0 | 3.2 | 0.00 | 0.00 | 0.00 | 64 | 1015.8 |
| 20260903205135 | 23 | 59 | 3.2 | 3.2 | 0.00 | 0.00 | 0.00 | 64 | 1015.7 |
| 20260903204635 | 22 | 64 | 1.6 | 4.8 | 0.00 | 0.00 | 0.00 | 64 | 1015.7 |
| 20260903204135 | 23 | 9 | 0.0 | 6.4 | 0.00 | 0.00 | 0.00 | 64 | 1015.7 |
| 20260903203635 | 23 | 60 | 6.4 | 6.4 | 0.00 | 0.00 | 0.00 | 64 | 1015.7 |
| 20260903203134 | 23 | 274 | 0.0 | 0.0 | 0.00 | 0.00 | 0.00 | 63 | 1015.6 |
| 20260903202634 | 23 | 274 | 0.0 | 3.2 | 0.00 | 0.00 | 0.00 | 63 | 1015.5 |
| 20260903202134 | 23 | 95 | 0.0 | 1.6 | 0.00 | 0.00 | 0.00 | 63 | 1015.6 |
| 20260903201633 | 23 | 45 | 1.6 | 6.4 | 0.00 | 0.00 | 0.00 | 63 | 1015.6 |
| 20260903201133 | 23 | 59 | 3.2 | 4.8 | 0.00 | 0.00 | 0.00 | 63 | 1015.5 |
| 20260903200633 | 22 | 4 | 0.0 | 6.4 | 0.00 | 0.00 | 0.00 | 63 | 1015.4 |
| 20260903200133 | 23 | 9 | 0.0 | 6.4 | 0.00 | 0.00 | 0.00 | 63 | 1015.4 |
| 20260903195632 | 23 | 340 | 0.0 | 6.4 | 0.00 | 0.00 | 0.00 | 63 | 1015.7 |
| 20260903195132 | 23 | 336 | 0.0 | 4.8 | 0.00 | 0.00 | 0.00 | 63 | 1015.7 |
| 20260903194632 | 23 | 329 | 0.0 | 3.2 | 0.00 | 0.00 | 0.00 | 62 | 1015.7 |
| 20260903194131 | 23 | 1 | 0.0 | 4.8 | 0.00 | 0.00 | 0.00 | 62 | 1015.7 |
| 20260903193631 | 23 | 68 | 0.0 | 0.0 | 0.00 | 0.00 | 0.00 | 62 | 1015.7 |
| 20260903193131 | 23 | 68 | 0.0 | 0.0 | 0.00 | 0.00 | 0.00 | 62 | 1015.7 |
| 20260903192631 | 23 | 68 | 0.0 | 0.0 | 0.00 | 0.00 | 0.00 | 62 | 1015.8 |
| 20260903192131 | 23 | 68 | 0.0 | 0.0 | 0.00 | 0.00 | 0.00 | 61 | 1015.8 |
| 20260903191630 | 23 | 75 | 0.0 | 3.2 | 0.00 | 0.00 | 0.00 | 61 | 1015.7 |
| 20260903191130 | 23 | 77 | 0.0 | 3.2 | 0.00 | 0.00 | 0.00 | 61 | 1015.7 |
| 20260903190629 | 23 | 108 | 3.2 | 3.2 | 0.00 | 0.00 | 0.00 | 61 | 1015.6 |
| 20260903190129 | 23 | 352 | 0.0 | 3.2 | 0.00 | 0.00 | 0.00 | 60 | 1015.6 |
| 20260903185629 | 23 | 352 | 0.0 | 0.0 | 0.00 | 0.00 | 0.00 | 60 | 1015.5 |
| 20260903185129 | 23 | 352 | 0.0 | 1.6 | 0.00 | 0.00 | 0.00 | 60 | 1015.5 |
| 20260903184628 | 23 | 15 | 1.6 | 3.2 | 0.00 | 0.00 | 0.00 | 60 | 1015.6 |
| 20260903184128 | 23 | 64 | 0.0 | 0.0 | 0.00 | 0.00 | 0.00 | 60 | 1015.6 |
| 20260903183628 | 23 | 64 | 0.0 | 3.2 | 0.00 | 0.00 | 0.00 | 60 | 1015.4 |
| 20260903183127 | 23 | 19 | 0.0 | 6.4 | 0.00 | 0.00 | 0.00 | 60 | 1015.6 |
| 20260903182627 | 23 | 4 | 0.0 | 6.4 | 0.00 | 0.00 | 0.00 | 60 | 1015.6 |
| 20260903182127 | 23 | 54 | 0.0 | 6.4 | 0.00 | 0.00 | 0.00 | 59 | 1015.6 |
| 20260903181627 | 23 | 101 | 1.6 | 6.4 | 0.00 | 0.00 | 0.00 | 59 | 1015.7 |
| 20260903181126 | 24 | 70 | 0.0 | 1.6 | 0.00 | 0.00 | 0.00 | 59 | 1015.5 |
| 20260903180626 | 24 | 63 | 0.0 | 4.8 | 0.00 | 0.00 | 0.00 | 58 | 1015.6 |
| 20260903180126 | 24 | 15 | 1.6 | 3.2 | 0.00 | 0.00 | 0.00 | 58 | 1015.6 |
| 20260903175625 | 24 | 95 | 0.0 | 4.8 | 0.00 | 0.00 | 0.00 | 58 | 1015.6 |
| 20260903175125 | 24 | 40 | 1.6 | 11.3 | 0.00 | 0.00 | 0.00 | 57 | 1015.5 |
| 20260903174625 | 24 | 14 | 0.0 | 4.8 | 0.00 | 0.00 | 0.00 | 57 | 1015.5 |
| 20260903174125 | 24 | 66 | 0.0 | 11.3 | 0.00 | 0.00 | 0.00 | 56 | 1015.5 |
| 20260903173624 | 24 | 111 | 1.6 | 11.3 | 0.00 | 0.00 | 0.00 | 56 | 1015.5 |
| 20260903173124 | 25 | 92 | 9.7 | 11.3 | 0.00 | 0.00 | 0.00 | 55 | 1015.5 |
| 20260903172624 | 25 | 12 | 1.6 | 12.9 | 0.00 | 0.00 | 0.00 | 55 | 1015.5 |
| 20260903172124 | 25 | 64 | 0.0 | 12.9 | 0.00 | 0.00 | 0.00 | 54 | 1015.4 |
| 20260903171623 | 25 | 57 | 4.8 | 14.5 | 0.00 | 0.00 | 0.00 | 53 | 1015.4 |
| 20260903171123 | 25 | 125 | 3.2 | 11.3 | 0.00 | 0.00 | 0.00 | 52 | 1015.3 |
| 20260903170623 | 25 | 82 | 1.6 | 8.0 | 0.00 | 0.00 | 0.00 | 51 | 1015.2 |
| 20260903170122 | 25 | 73 | 3.2 | 12.9 | 0.00 | 0.00 | 0.00 | 51 | 1015.1 |
| 20260903165622 | 25 | 99 | 3.2 | 12.9 | 0.00 | 0.00 | 0.00 | 50 | 1015.1 |
| 20260903165122 | 26 | 36 | 4.8 | 9.7 | 0.00 | 0.00 | 0.00 | 50 | 1015.0 |
| 20260903164621 | 26 | 46 | 1.6 | 9.7 | 0.00 | 0.00 | 0.00 | 49 | 1014.8 |
| 20260903164121 | 26 | 67 | 3.2 | 14.5 | 0.00 | 0.00 | 0.00 | 48 | 1015.0 |
| 20260903163621 | 26 | 123 | 1.6 | 16.1 | 0.00 | 0.00 | 0.00 | 47 | 1015.0 |
| 20260903163121 | 26 | 84 | 3.2 | 14.5 | 0.00 | 0.00 | 0.00 | 47 | 1015.0 |
| 20260903162620 | 26 | 1 | 1.6 | 9.7 | 0.00 | 0.00 | 0.00 | 48 | 1014.9 |
| 20260903162120 | 26 | 78 | 3.2 | 14.5 | 0.00 | 0.00 | 0.00 | 48 | 1014.8 |
| 20260903161620 | 26 | 29 | 1.6 | 9.7 | 0.00 | 0.00 | 0.00 | 48 | 1014.7 |
| 20260903161119 | 26 | 45 | 0.0 | 8.0 | 0.00 | 0.00 | 0.00 | 48 | 1014.7 |
| 20260903160619 | 25 | 64 | 1.6 | 11.3 | 0.00 | 0.00 | 0.00 | 48 | 1014.8 |
| 20260903160119 | 26 | 4 | 1.6 | 12.9 | 0.00 | 0.00 | 0.00 | 47 | 1014.9 |
| 20260903155619 | 26 | 80 | 0.0 | 11.3 | 0.00 | 0.00 | 0.00 | 47 | 1014.8 |
| 20260903155118 | 26 | 104 | 8.0 | 11.3 | 0.00 | 0.00 | 0.00 | 47 | 1014.8 |
| 20260903154618 | 26 | 61 | 0.0 | 12.9 | 0.00 | 0.00 | 0.00 | 47 | 1014.7 |
| 20260903154118 | 26 | 119 | 4.8 | 12.9 | 0.00 | 0.00 | 0.00 | 47 | 1014.8 |
| 20260903153618 | 26 | 53 | 4.8 | 9.7 | 0.00 | 0.00 | 0.00 | 46 | 1014.8 |
| 20260903153117 | 26 | 105 | 3.2 | 12.9 | 0.00 | 0.00 | 0.00 | 46 | 1014.8 |
| 20260903152617 | 26 | 282 | 3.2 | 11.3 | 0.00 | 0.00 | 0.00 | 46 | 1014.7 |
| 20260903152117 | 26 | 94 | 3.2 | 11.3 | 0.00 | 0.00 | 0.00 | 46 | 1014.8 |
| 20260903151616 | 26 | 288 | 3.2 | 14.5 | 0.00 | 0.00 | 0.00 | 46 | 1014.9 |
| 20260903151116 | 26 | 71 | 6.4 | 14.5 | 0.00 | 0.00 | 0.00 | 45 | 1014.9 |
| 20260903150616 | 26 | 279 | 3.2 | 12.9 | 0.00 | 0.00 | 0.00 | 45 | 1015.0 |
| 20260903150116 | 26 | 104 | 6.4 | 11.3 | 0.00 | 0.00 | 0.00 | 46 | 1015.0 |
| 20260903145615 | 26 | 338 | 4.8 | 12.9 | 0.00 | 0.00 | 0.00 | 45 | 1015.0 |
| 20260903145115 | 26 | 54 | 4.8 | 11.3 | 0.00 | 0.00 | 0.00 | 46 | 1015.0 |
| 20260903144615 | 26 | 7 | 4.8 | 12.9 | 0.00 | 0.00 | 0.00 | 45 | 1014.9 |
| 20260903144114 | 26 | 12 | 1.6 | 11.3 | 0.00 | 0.00 | 0.00 | 45 | 1015.0 |
| 20260903143614 | 26 | 350 | 4.8 | 12.9 | 0.00 | 0.00 | 0.00 | 44 | 1015.0 |
| 20260903143114 | 26 | 285 | 1.6 | 22.5 | 0.00 | 0.00 | 0.00 | 44 | 1015.0 |
| 20260903142614 | 26 | 326 | 11.3 | 11.3 | 0.00 | 0.00 | 0.00 | 44 | 1014.9 |
| 20260903142113 | 26 | 150 | 4.8 | 16.1 | 0.00 | 0.00 | 0.00 | 44 | 1014.9 |
| 20260903141613 | 26 | 74 | 4.8 | 16.1 | 0.00 | 0.00 | 0.00 | 44 | 1014.8 |
| 20260903141113 | 26 | 81 | 8.0 | 14.5 | 0.00 | 0.00 | 0.00 | 44 | 1014.8 |
| 20260903140614 | 26 | 122 | 8.0 | 20.9 | 0.00 | 0.00 | 0.00 | 44 | 1014.9 |
| 20260903140112 | 26 | 324 | 1.6 | 11.3 | 0.00 | 0.00 | 0.00 | 44 | 1014.9 |
| 20260903135612 | 26 | 9 | 3.2 | 16.1 | 0.00 | 0.00 | 0.00 | 44 | 1014.9 |
| 20260903135112 | 26 | 37 | 1.6 | 14.5 | 0.00 | 0.00 | 0.00 | 44 | 1015.0 |
| 20260903134611 | 26 | 306 | 1.6 | 14.5 | 0.00 | 0.00 | 0.00 | 46 | 1015.0 |
| 20260903134111 | 25 | 15 | 3.2 | 8.0 | 0.00 | 0.00 | 0.00 | 47 | 1015.0 |
| 20260903133611 | 25 | 75 | 1.6 | 9.7 | 0.00 | 0.00 | 0.00 | 47 | 1015.0 |
| 20260903133110 | 25 | 212 | 3.2 | 11.3 | 0.00 | 0.00 | 0.00 | 46 | 1015.1 |
| 20260903132610 | 25 | 85 | 9.7 | 12.9 | 0.00 | 0.00 | 0.00 | 46 | 1015.1 |
| 20260903132110 | 25 | 45 | 1.6 | 19.3 | 0.00 | 0.00 | 0.00 | 46 | 1015.1 |
| 20260903131610 | 25 | 322 | 3.2 | 11.3 | 0.00 | 0.00 | 0.00 | 47 | 1015.1 |
| 20260903131109 | 25 | 119 | 3.2 | 16.1 | 0.00 | 0.00 | 0.00 | 47 | 1015.1 |
| 20260903130609 | 25 | 139 | 3.2 | 14.5 | 0.00 | 0.00 | 0.00 | 46 | 1015.1 |
| 20260903130109 | 25 | 91 | 8.0 | 14.5 | 0.00 | 0.00 | 0.00 | 47 | 1015.2 |
| 20260903125608 | 25 | 322 | 6.4 | 14.5 | 0.00 | 0.00 | 0.00 | 47 | 1015.2 |
| 20260903125108 | 25 | 66 | 4.8 | 17.7 | 0.00 | 0.00 | 0.00 | 47 | 1015.2 |
| 20260903124608 | 25 | 64 | 6.4 | 20.9 | 0.00 | 0.00 | 0.00 | 46 | 1015.3 |
| 20260903124108 | 25 | 43 | 3.2 | 14.5 | 0.00 | 0.00 | 0.00 | 46 | 1015.2 |
| 20260903123607 | 25 | 0 | 9.7 | 19.3 | 0.00 | 0.00 | 0.00 | 46 | 1015.3 |
| 20260903123107 | 25 | 8 | 8.0 | 17.7 | 0.00 | 0.00 | 0.00 | 45 | 1015.2 |
| 20260903122607 | 25 | 336 | 11.3 | 17.7 | 0.00 | 0.00 | 0.00 | 45 | 1015.1 |
| 20260903122106 | 25 | 126 | 3.2 | 14.5 | 0.00 | 0.00 | 0.00 | 47 | 1015.0 |
| 20260903121606 | 25 | 125 | 3.2 | 22.5 | 0.00 | 0.00 | 0.00 | 47 | 1015.2 |
| 20260903121106 | 25 | 120 | 4.8 | 11.3 | 0.00 | 0.00 | 0.00 | 48 | 1015.3 |
| 20260903120606 | 24 | 64 | 0.0 | 12.9 | 0.00 | 0.00 | 0.00 | 48 | 1015.3 |
| 20260903120105 | 24 | 87 | 0.0 | 20.9 | 0.00 | 0.00 | 0.00 | 48 | 1015.4 |
| 20260903115605 | 25 | 78 | 3.2 | 8.0 | 0.00 | 0.00 | 0.00 | 48 | 1015.6 |
| 20260903115105 | 25 | 63 | 1.6 | 17.7 | 0.00 | 0.00 | 0.00 | 47 | 1015.5 |
| 20260903114604 | 25 | 56 | 0.0 | 8.0 | 0.00 | 0.00 | 0.00 | 48 | 1015.5 |
| 20260903114104 | 25 | 119 | 3.2 | 8.0 | 0.00 | 0.00 | 0.00 | 49 | 1015.6 |
| 20260903113604 | 24 | 142 | 4.8 | 6.4 | 0.00 | 0.00 | 0.00 | 49 | 1015.5 |
| 20260903113104 | 25 | 104 | 0.0 | 4.8 | 0.00 | 0.00 | 0.00 | 49 | 1015.6 |
| 20260903112603 | 25 | 331 | 3.2 | 8.0 | 0.00 | 0.00 | 0.00 | 49 | 1015.6 |
| 20260903112103 | 25 | 352 | 1.6 | 6.4 | 0.00 | 0.00 | 0.00 | 48 | 1015.7 |
| 20260903111603 | 25 | 45 | 4.8 | 9.7 | 0.00 | 0.00 | 0.00 | 49 | 1015.8 |
| 20260903111102 | 25 | 18 | 1.6 | 11.3 | 0.00 | 0.00 | 0.00 | 48 | 1015.8 |
| 20260903110602 | 25 | 25 | 0.0 | 6.4 | 0.00 | 0.00 | 0.00 | 49 | 1016.1 |
| 20260903105602 | 23 | 281 | 3.2 | 6.4 | 0.00 | 0.00 | 0.00 | 53 | 1015.9 |
| 20260903105101 | 23 | 32 | 0.0 | 8.0 | 0.00 | 0.00 | 0.00 | 55 | 1016.0 |
| 20260903104601 | 22 | 60 | 0.0 | 8.0 | 0.00 | 0.00 | 0.00 | 55 | 1016.1 |
| 20260903104101 | 22 | 307 | 0.0 | 8.0 | 0.00 | 0.00 | 0.00 | 56 | 1016.2 |
| 20260903103600 | 22 | 5 | 4.8 | 4.8 | 0.00 | 0.00 | 0.00 | 56 | 1016.2 |
| 20260903103100 | 22 | 9 | 1.6 | 6.4 | 0.00 | 0.00 | 0.00 | 57 | 1016.3 |
| 20260903102600 | 21 | 56 | 0.0 | 6.4 | 0.00 | 0.00 | 0.00 | 57 | 1016.3 |
| 20260903102100 | 21 | 43 | 0.0 | 4.8 | 0.00 | 0.00 | 0.00 | 57 | 1016.4 |
| 20260903101559 | 21 | 46 | 0.0 | 6.4 | 0.00 | 0.00 | 0.00 | 57 | 1016.4 |
| 20260903101059 | 21 | 253 | 0.0 | 8.0 | 0.00 | 0.00 | 0.00 | 57 | 1016.6 |
| 20260903100559 | 21 | 46 | 0.0 | 6.4 | 0.00 | 0.00 | 0.00 | 57 | 1016.8 |
| 20260903100059 | 21 | 309 | 4.8 | 6.4 | 0.00 | 0.00 | 0.00 | 57 | 1016.7 |
| 20260903095558 | 21 | 341 | 0.0 | 4.8 | 0.00 | 0.00 | 0.00 | 57 | 1016.8 |
| 20260903095058 | 21 | 123 | 3.2 | 6.4 | 0.00 | 0.00 | 0.00 | 57 | 1016.8 |
| 20260903094558 | 21 | 345 | 1.6 | 14.5 | 0.00 | 0.00 | 0.00 | 57 | 1016.9 |
| 20260903094057 | 21 | 142 | 1.6 | 8.0 | 0.00 | 0.00 | 0.00 | 57 | 1016.9 |
| 20260903093557 | 21 | 219 | 0.0 | 6.4 | 0.00 | 0.00 | 0.00 | 57 | 1016.9 |
| 20260903093057 | 21 | 21 | 1.6 | 12.9 | 0.00 | 0.00 | 0.00 | 57 | 1016.9 |
| 20260903092557 | 21 | 84 | 6.4 | 9.7 | 0.00 | 0.00 | 0.00 | 56 | 1017.0 |
| 20260903092056 | 21 | 302 | 1.6 | 12.9 | 0.00 | 0.00 | 0.00 | 56 | 1017.1 |
| 20260903091556 | 21 | 358 | 8.0 | 11.3 | 0.00 | 0.00 | 0.00 | 57 | 1016.9 |
| 20260903091056 | 21 | 210 | 1.6 | 12.9 | 0.00 | 0.00 | 0.00 | 58 | 1016.9 |
| 20260903090555 | 20 | 323 | 1.6 | 12.9 | 0.00 | 0.00 | 0.00 | 58 | 1016.8 |
| 20260903090055 | 20 | 116 | 8.0 | 12.9 | 0.00 | 0.00 | 0.00 | 58 | 1016.9 |
| 20260903085555 | 20 | 330 | 3.2 | 8.0 | 0.00 | 0.00 | 0.00 | 59 | 1017.0 |
| 20260903085055 | 20 | 302 | 3.2 | 11.3 | 0.00 | 0.00 | 0.00 | 60 | 1017.1 |
| 20260903084554 | 20 | 315 | 0.0 | 8.0 | 0.00 | 0.00 | 0.00 | 61 | 1017.2 |
| 20260903084054 | 20 | 357 | 1.6 | 3.2 | 0.00 | 0.00 | 0.00 | 62 | 1017.1 |
| 20260903083554 | 20 | 333 | 3.2 | 8.0 | 0.00 | 0.00 | 0.00 | 62 | 1017.1 |
| 20260903083053 | 20 | 334 | 1.6 | 11.3 | 0.00 | 0.00 | 0.00 | 62 | 1017.0 |
| 20260903082553 | 20 | 358 | 6.4 | 11.3 | 0.00 | 0.00 | 0.00 | 61 | 1017.2 |
| 20260903082053 | 20 | 324 | 1.6 | 8.0 | 0.00 | 0.00 | 0.00 | 62 | 1017.2 |
| 20260903081553 | 20 | 296 | 1.6 | 6.4 | 0.00 | 0.00 | 0.00 | 62 | 1017.2 |
| 20260903081052 | 19 | 320 | 0.0 | 8.0 | 0.00 | 0.00 | 0.00 | 63 | 1017.1 |
| 20260903080552 | 19 | 291 | 4.8 | 4.8 | 0.00 | 0.00 | 0.00 | 64 | 1017.2 |
| 20260903080052 | 19 | 275 | 0.0 | 1.6 | 0.00 | 0.00 | 0.00 | 65 | 1017.2 |
| 20260903075551 | 19 | 286 | 0.0 | 3.2 | 0.00 | 0.00 | 0.00 | 65 | 1017.0 |
| 20260903075051 | 19 | 25 | 1.6 | 4.8 | 0.00 | 0.00 | 0.00 | 65 | 1017.1 |
| 20260903074551 | 19 | 344 | 0.0 | 3.2 | 0.00 | 0.00 | 0.00 | 65 | 1017.0 |
| 20260903074051 | 18 | 188 | 0.0 | 4.8 | 0.00 | 0.00 | 0.00 | 65 | 1017.0 |
| 20260903073550 | 18 | 127 | 0.0 | 3.2 | 0.00 | 0.00 | 0.00 | 65 | 1017.1 |
| 20260903073050 | 18 | 298 | 1.6 | 4.8 | 0.00 | 0.00 | 0.00 | 65 | 1017.1 |
| 20260903072550 | 18 | 258 | 0.0 | 4.8 | 0.00 | 0.00 | 0.00 | 66 | 1017.2 |
| 20260903072049 | 18 | 343 | 1.6 | 6.4 | 0.00 | 0.00 | 0.00 | 66 | 1017.0 |
| 20260903071549 | 18 | 0 | 0.0 | 4.8 | 0.00 | 0.00 | 0.00 | 66 | 1017.2 |
| 20260903071049 | 18 | 229 | 1.6 | 3.2 | 0.00 | 0.00 | 0.00 | 66 | 1017.2 |
| 20260903070549 | 18 | 281 | 0.0 | 3.2 | 0.00 | 0.00 | 0.00 | 67 | 1017.2 |
| 20260903070048 | 18 | 232 | 1.6 | 1.6 | 0.00 | 0.00 | 0.00 | 67 | 1017.3 |
| 20260903065548 | 18 | 0 | 0.0 | 3.2 | 0.00 | 0.00 | 0.00 | 67 | 1017.2 |
| 20260903065048 | 18 | 292 | 3.2 | 8.0 | 0.00 | 0.00 | 0.00 | 67 | 1017.2 |
| 20260903064547 | 18 | 234 | 3.2 | 4.8 | 0.00 | 0.00 | 0.00 | 67 | 1017.1 |
| 20260903064047 | 18 | 220 | 0.0 | 6.4 | 0.00 | 0.00 | 0.00 | 68 | 1017.1 |
| 20260903063547 | 18 | 219 | 0.0 | 4.8 | 0.00 | 0.00 | 0.00 | 68 | 1017.2 |
| 20260903063047 | 18 | 4 | 0.0 | 0.0 | 0.00 | 0.00 | 0.00 | 69 | 1017.1 |
| 20260903062546 | 17 | 4 | 0.0 | 3.2 | 0.00 | 0.00 | 0.00 | 69 | 1017.2 |
| 20260903062046 | 17 | 352 | 0.0 | 4.8 | 0.00 | 0.00 | 0.00 | 70 | 1017.3 |
| 20260903061546 | 17 | 352 | 0.0 | 4.8 | 0.00 | 0.00 | 0.00 | 70 | 1017.4 |
| 20260903061045 | 17 | 77 | 0.0 | 0.0 | 0.00 | 0.00 | 0.00 | 70 | 1017.5 |
| 20260903060545 | 17 | 77 | 0.0 | 0.0 | 0.00 | 0.00 | 0.00 | 70 | 1017.5 |
| 20260903060045 | 17 | 77 | 0.0 | 1.6 | 0.00 | 0.00 | 0.00 | 70 | 1017.5 |
| 20260903055545 | 17 | 298 | 0.0 | 1.6 | 0.00 | 0.00 | 0.00 | 70 | 1017.4 |
| 20260903055044 | 17 | 327 | 0.0 | 3.2 | 0.00 | 0.00 | 0.00 | 70 | 1017.2 |